createdAt,value
2022-10-13T00:00:13.406Z,3.77
2022-10-13T00:02:39.706Z,3.73
2022-10-13T00:05:06.082Z,3.33
2022-10-13T00:07:32.402Z,3.30
2022-10-13T00:09:58.694Z,2.70
2022-10-13T00:12:24.991Z,3.10
2022-10-13T00:14:51.318Z,3.60
2022-10-13T00:17:17.633Z,3.27
2022-10-13T00:19:43.910Z,3.80
2022-10-13T00:22:10.214Z,3.80
2022-10-13T00:24:36.606Z,3.40
2022-10-13T00:27:02.949Z,3.30
2022-10-13T00:29:29.256Z,3.87
2022-10-13T00:31:55.541Z,4.77
2022-10-13T00:34:21.845Z,3.63
2022-10-13T00:36:48.156Z,3.63
2022-10-13T00:39:14.668Z,3.30
2022-10-13T00:41:41.025Z,3.20
2022-10-13T00:44:45.822Z,3.23
2022-10-13T00:47:12.191Z,3.83
2022-10-13T00:49:38.561Z,3.10
2022-10-13T00:52:04.869Z,3.47
2022-10-13T00:54:31.257Z,3.40
2022-10-13T00:56:57.670Z,3.43
2022-10-13T00:59:28.866Z,2.40
2022-10-13T01:01:56.220Z,3.00
2022-10-13T01:04:25.843Z,2.97
2022-10-13T01:06:54.718Z,3.27
2022-10-13T01:09:21.075Z,3.60
2022-10-13T01:12:08.083Z,3.57
2022-10-13T01:14:42.417Z,2.53
2022-10-13T01:17:42.521Z,3.40
2022-10-13T01:20:37.638Z,3.07
2022-10-13T01:23:38.155Z,2.93
2022-10-13T01:26:11.809Z,3.07
2022-10-13T01:28:46.910Z,2.97
2022-10-13T01:31:20.029Z,2.60
2022-10-13T01:34:17.303Z,3.47
2022-10-13T01:36:58.653Z,2.80
2022-10-13T01:39:32.022Z,2.83
2022-10-13T01:42:05.314Z,3.83
2022-10-13T01:44:34.461Z,2.27
2022-10-13T01:47:01.462Z,3.13
2022-10-13T01:49:31.340Z,2.50
2022-10-13T01:52:01.755Z,3.00
2022-10-13T01:54:28.072Z,3.37
2022-10-13T01:56:55.212Z,2.53
2022-10-13T01:59:22.663Z,3.23
2022-10-13T02:02:00.077Z,2.83
2022-10-13T02:04:43.915Z,2.87
2022-10-13T02:07:18.593Z,2.73
2022-10-13T02:09:47.870Z,2.73
2022-10-13T02:12:20.953Z,2.97
2022-10-13T02:14:48.480Z,2.50
2022-10-13T02:17:15.146Z,3.10
2022-10-13T02:19:41.562Z,3.07
2022-10-13T02:22:08.245Z,2.97
2022-10-13T02:24:34.612Z,2.70
2022-10-13T02:27:00.905Z,3.10
2022-10-13T02:29:27.282Z,2.53
2022-10-13T02:31:54.779Z,3.00
2022-10-13T02:34:21.082Z,3.67
2022-10-13T02:36:47.756Z,2.50
2022-10-13T02:39:14.170Z,3.47
2022-10-13T02:41:40.510Z,2.97
2022-10-13T02:44:07.128Z,2.40
2022-10-13T02:46:33.550Z,2.50
2022-10-13T02:48:59.875Z,2.70
2022-10-13T02:51:26.559Z,2.73
2022-10-13T02:53:52.884Z,3.20
2022-10-13T02:56:19.183Z,2.70
2022-10-13T02:58:45.486Z,3.17
2022-10-13T03:01:14.404Z,2.93
2022-10-13T03:03:40.995Z,2.60
2022-10-13T03:06:07.965Z,3.07
2022-10-13T03:08:35.042Z,2.80
2022-10-13T03:11:01.396Z,3.37
2022-10-13T03:13:27.771Z,2.20
2022-10-13T03:15:54.093Z,2.63
2022-10-13T03:18:20.392Z,2.87
2022-10-13T03:20:58.824Z,2.40
2022-10-13T03:23:25.294Z,2.80
2022-10-13T03:25:51.647Z,2.83
2022-10-13T03:28:18.218Z,3.00
2022-10-13T03:30:44.593Z,3.07
2022-10-13T03:33:10.906Z,2.37
2022-10-13T03:35:37.307Z,2.97
2022-10-13T03:38:03.610Z,2.27
2022-10-13T03:40:29.906Z,2.73
2022-10-13T03:42:56.286Z,2.47
2022-10-13T03:45:22.756Z,2.40
2022-10-13T03:47:49.066Z,3.83
2022-10-13T03:50:15.395Z,2.93
2022-10-13T03:52:41.729Z,3.33
2022-10-13T03:55:08.160Z,2.33
2022-10-13T03:57:34.698Z,2.73
2022-10-13T04:00:01.569Z,2.60
2022-10-13T04:02:27.921Z,2.43
2022-10-13T04:04:54.218Z,4.13
2022-10-13T04:07:20.609Z,2.70
2022-10-13T04:09:46.920Z,2.37
2022-10-13T04:12:17.087Z,3.60
2022-10-13T04:14:46.136Z,2.63
2022-10-13T04:17:12.639Z,2.30
2022-10-13T04:19:38.938Z,2.53
2022-10-13T04:22:05.285Z,2.50
2022-10-13T04:24:31.581Z,2.60
2022-10-13T04:26:57.878Z,2.40
2022-10-13T04:29:24.177Z,3.03
2022-10-13T04:31:50.470Z,2.27
2022-10-13T04:34:16.762Z,2.93
2022-10-13T04:36:43.200Z,2.63
2022-10-13T04:39:09.495Z,4.70
2022-10-13T04:41:35.811Z,2.47
2022-10-13T04:44:02.305Z,3.80
2022-10-13T04:46:29.118Z,2.33
2022-10-13T04:48:56.392Z,3.87
2022-10-13T04:51:24.753Z,3.00
2022-10-13T04:53:55.912Z,2.93
2022-10-13T04:56:22.388Z,3.17
2022-10-13T04:58:49.441Z,3.03
2022-10-13T05:01:22.345Z,3.50
2022-10-13T05:03:55.154Z,3.30
2022-10-13T05:06:25.500Z,2.90
2022-10-13T05:08:51.810Z,2.17
2022-10-13T05:11:20.352Z,2.70
2022-10-13T05:13:47.811Z,2.67
2022-10-13T05:16:15.841Z,2.37
2022-10-13T05:18:42.623Z,2.47
2022-10-13T05:21:11.483Z,3.43
2022-10-13T05:23:38.797Z,3.67
2022-10-13T05:26:07.711Z,2.83
2022-10-13T05:28:34.207Z,2.67
2022-10-13T05:31:24.342Z,3.40
2022-10-13T05:33:51.993Z,3.70
2022-10-13T05:36:23.593Z,4.47
2022-10-13T05:38:54.616Z,3.17
2022-10-13T05:41:21.406Z,3.70
2022-10-13T05:43:48.194Z,5.47
2022-10-13T05:46:14.898Z,3.57
2022-10-13T05:48:41.220Z,3.93
2022-10-13T05:51:11.229Z,4.13
2022-10-13T05:53:40.258Z,3.93
2022-10-13T05:56:10.571Z,6.17
2022-10-13T05:58:43.066Z,3.93
2022-10-13T06:01:12.051Z,4.50
2022-10-13T06:03:39.814Z,4.93
2022-10-13T06:06:06.367Z,3.67
2022-10-13T06:08:32.683Z,4.23
2022-10-13T06:10:59.061Z,5.63
2022-10-13T06:13:25.375Z,4.50
2022-10-13T06:15:51.717Z,4.43
2022-10-13T06:18:18.094Z,4.27
2022-10-13T06:20:44.550Z,3.93
2022-10-13T06:23:10.874Z,4.03
2022-10-13T06:25:37.215Z,5.27
2022-10-13T06:28:03.671Z,4.70
2022-10-13T06:30:29.959Z,5.27
2022-10-13T06:32:56.374Z,4.43
2022-10-13T06:35:23.449Z,3.90
2022-10-13T06:37:50.135Z,4.97
2022-10-13T06:40:16.585Z,5.50
2022-10-13T06:42:42.878Z,3.83
2022-10-13T06:45:09.585Z,5.90
2022-10-13T06:47:35.891Z,4.37
2022-10-13T06:50:02.191Z,8.00
2022-10-13T06:52:28.484Z,4.63
2022-10-13T06:54:54.769Z,5.90
2022-10-13T06:57:21.207Z,3.47
2022-10-13T06:59:48.077Z,4.63
2022-10-13T07:02:14.368Z,4.30
2022-10-13T07:04:40.780Z,5.23
2022-10-13T07:07:07.131Z,4.37
2022-10-13T07:09:33.435Z,5.10
2022-10-13T07:11:59.720Z,5.17
2022-10-13T07:14:26.078Z,5.10
2022-10-13T07:16:52.373Z,4.63
2022-10-13T07:19:18.756Z,4.87
2022-10-13T07:21:45.095Z,4.57
2022-10-13T07:24:11.835Z,4.20
2022-10-13T07:26:38.239Z,4.87
2022-10-13T07:29:04.935Z,3.70
2022-10-13T07:31:31.270Z,5.13
2022-10-13T07:33:58.762Z,4.33
2022-10-13T07:36:25.859Z,4.27
2022-10-13T07:38:52.147Z,5.03
2022-10-13T07:41:18.500Z,4.30
2022-10-13T07:43:44.970Z,6.17
2022-10-13T07:46:13.263Z,5.80
2022-10-13T07:48:39.699Z,5.87
2022-10-13T07:51:07.526Z,5.47
2022-10-13T07:53:35.260Z,6.33
2022-10-13T07:56:06.746Z,6.93
2022-10-13T07:58:34.385Z,7.03
2022-10-13T08:01:01.868Z,5.87
2022-10-13T08:03:28.895Z,6.03
2022-10-13T08:05:55.640Z,6.23
2022-10-13T08:08:22.040Z,7.03
2022-10-13T08:10:48.390Z,6.30
2022-10-13T08:13:14.749Z,6.30
2022-10-13T08:15:41.884Z,6.37
2022-10-13T08:18:09.561Z,6.67
2022-10-13T08:20:43.333Z,8.20
2022-10-13T08:23:10.242Z,11.03
2022-10-13T08:25:38.752Z,5.70
2022-10-13T08:28:06.861Z,7.53
2022-10-13T08:30:33.469Z,5.17
2022-10-13T08:32:59.924Z,4.57
2022-10-13T08:35:26.329Z,8.13
2022-10-13T08:37:52.669Z,7.50
2022-10-13T08:40:20.859Z,7.43
2022-10-13T08:42:47.207Z,5.83
2022-10-13T08:45:40.332Z,6.63
2022-10-13T08:48:16.917Z,5.47
2022-10-13T08:50:44.488Z,6.10
2022-10-13T08:53:23.210Z,5.17
2022-10-13T08:55:52.750Z,5.70
2022-10-13T08:58:24.986Z,5.17
2022-10-13T09:01:00.147Z,3.50
2022-10-13T09:03:29.244Z,3.93
2022-10-13T09:06:15.045Z,3.90
2022-10-13T09:08:51.334Z,4.23
2022-10-13T09:11:17.634Z,4.53
2022-10-13T09:13:44.046Z,4.23
2022-10-13T09:16:10.434Z,4.47
2022-10-13T09:18:37.546Z,5.10
2022-10-13T09:21:30.155Z,3.20
2022-10-13T09:24:06.487Z,3.70
2022-10-13T09:26:37.067Z,4.47
2022-10-13T09:29:18.688Z,4.33
2022-10-13T09:31:45.247Z,4.83
2022-10-13T09:34:16.294Z,4.23
2022-10-13T09:37:03.437Z,3.73
2022-10-13T09:39:30.748Z,3.60
2022-10-13T09:42:20.590Z,3.60
2022-10-13T09:44:50.562Z,3.80
2022-10-13T09:47:25.187Z,5.10
2022-10-13T09:50:06.371Z,5.17
2022-10-13T09:52:34.605Z,4.27
2022-10-13T09:55:00.974Z,4.07
2022-10-13T09:57:42.652Z,4.47
2022-10-13T10:00:26.498Z,4.97
2022-10-13T10:03:01.788Z,3.83
2022-10-13T10:05:41.247Z,7.47
2022-10-13T10:08:33.735Z,5.23
2022-10-13T10:11:02.425Z,7.70
2022-10-13T10:13:28.812Z,9.17
2022-10-13T10:16:22.382Z,7.40
2022-10-13T10:18:52.809Z,4.60
2022-10-13T10:21:44.625Z,6.43
2022-10-13T10:24:43.243Z,8.23
2022-10-13T10:27:26.147Z,8.90
2022-10-13T10:30:01.880Z,10.35
2022-10-13T10:32:49.240Z,11.68
2022-10-13T10:35:29.474Z,10.15
2022-10-13T10:38:13.969Z,6.65
2022-10-13T10:41:12.095Z,5.22
2022-10-13T10:43:43.643Z,6.13
2022-10-13T10:46:25.902Z,4.75
2022-10-13T10:48:55.397Z,4.63
2022-10-13T10:51:31.009Z,9.30
2022-10-13T10:54:20.097Z,13.63
2022-10-13T10:56:54.910Z,13.60
2022-10-13T10:59:55.240Z,23.20
2022-10-13T11:02:44.150Z,19.27
2022-10-13T11:05:11.249Z,24.92
2022-10-13T11:07:43.689Z,24.98
2022-10-13T11:10:10.021Z,10.80
2022-10-13T11:12:48.131Z,12.13
2022-10-13T11:15:25.606Z,17.88
2022-10-13T11:17:52.140Z,14.23
2022-10-13T11:20:21.362Z,9.85
2022-10-13T11:23:07.863Z,13.73
2022-10-13T11:25:45.158Z,14.07
2022-10-13T11:28:20.464Z,19.05
2022-10-13T11:30:50.366Z,16.33
2022-10-13T11:33:39.214Z,15.90
2022-10-13T11:36:29.506Z,13.25
2022-10-13T11:39:23.553Z,11.02
2022-10-13T11:42:11.752Z,20.50
2022-10-13T11:44:43.914Z,18.80
2022-10-13T11:47:47.939Z,16.80
2022-10-13T11:50:37.927Z,18.10
2022-10-13T11:53:24.646Z,18.25
2022-10-13T11:55:51.953Z,19.38
2022-10-13T11:58:32.592Z,18.30
2022-10-13T12:01:01.108Z,41.65
2022-10-13T12:03:31.932Z,18.52
2022-10-13T12:06:31.994Z,19.83
2022-10-13T12:08:58.803Z,11.07
2022-10-13T12:11:28.058Z,14.85
2022-10-13T12:13:54.762Z,15.30
2022-10-13T12:16:21.450Z,15.82
2022-10-13T12:18:48.198Z,8.20
2022-10-13T12:21:22.864Z,29.25
2022-10-13T12:23:51.439Z,10.13
2022-10-13T12:26:20.298Z,16.10
2022-10-13T12:28:52.001Z,17.27
2022-10-13T12:31:26.031Z,12.90
2022-10-13T12:34:00.578Z,17.05
2022-10-13T12:36:30.815Z,13.50
2022-10-13T12:39:03.414Z,15.95
2022-10-13T12:41:32.944Z,10.20
2022-10-13T12:44:01.261Z,12.90
2022-10-13T12:46:40.273Z,12.55
2022-10-13T12:49:10.984Z,16.17
2022-10-13T12:51:37.544Z,12.15
2022-10-13T12:54:08.671Z,12.30
2022-10-13T12:56:35.060Z,12.55
2022-10-13T12:59:01.395Z,15.18
2022-10-13T13:01:34.520Z,15.48
2022-10-13T13:04:15.987Z,18.65
2022-10-13T13:07:02.138Z,17.80
2022-10-13T13:09:29.477Z,22.67
2022-10-13T13:12:16.074Z,21.35
2022-10-13T13:14:43.958Z,19.33
2022-10-13T13:17:45.423Z,20.70
2022-10-13T13:20:30.040Z,20.50
2022-10-13T13:22:56.683Z,21.95
2022-10-13T13:25:23.453Z,19.75
2022-10-13T13:27:49.896Z,23.63
2022-10-13T13:30:21.831Z,20.88
2022-10-13T13:32:48.243Z,21.95
2022-10-13T13:35:14.743Z,18.83
2022-10-13T13:37:49.684Z,21.23
2022-10-13T13:40:27.459Z,18.85
2022-10-13T13:42:54.391Z,18.35
2022-10-13T13:45:22.229Z,22.13
2022-10-13T13:47:48.605Z,19.05
2022-10-13T13:50:24.099Z,18.52
2022-10-13T13:52:50.441Z,18.95
2022-10-13T13:55:16.952Z,18.75
2022-10-13T13:57:43.873Z,21.63
2022-10-13T14:00:14.102Z,18.67
2022-10-13T14:02:40.673Z,25.85
2022-10-13T14:05:07.548Z,19.33
2022-10-13T14:07:33.983Z,19.30
2022-10-13T14:10:02.113Z,19.48
2022-10-13T14:12:30.522Z,21.70
2022-10-13T14:14:56.847Z,18.90
2022-10-13T14:17:23.172Z,18.10
2022-10-13T14:19:49.474Z,20.33
2022-10-13T14:22:15.822Z,17.63
2022-10-13T14:24:42.197Z,20.75
2022-10-13T14:27:11.244Z,19.70
2022-10-13T14:29:37.565Z,16.98
2022-10-13T14:32:04.197Z,16.90
2022-10-13T14:34:30.517Z,16.33
2022-10-13T14:36:56.818Z,21.80
2022-10-13T14:39:23.161Z,19.30
2022-10-13T14:41:49.515Z,18.75
2022-10-13T14:44:15.887Z,16.80
2022-10-13T14:46:42.258Z,20.23
2022-10-13T14:49:10.451Z,18.73
2022-10-13T14:51:36.970Z,22.10
2022-10-13T14:54:04.390Z,17.83
2022-10-13T14:56:30.964Z,19.30
2022-10-13T14:58:59.294Z,18.10
2022-10-13T15:01:26.047Z,16.38
2022-10-13T15:03:52.553Z,15.95
2022-10-13T15:06:21.420Z,15.90
2022-10-13T15:08:47.986Z,17.70
2022-10-13T15:11:15.043Z,18.05
2022-10-13T15:13:41.361Z,18.50
2022-10-13T15:16:11.953Z,18.20
2022-10-13T15:18:38.336Z,16.70
2022-10-13T15:21:04.681Z,21.35
2022-10-13T15:23:32.150Z,23.75
2022-10-13T15:26:00.174Z,32.47
2022-10-13T15:28:28.742Z,33.17
2022-10-13T15:30:55.452Z,37.53
2022-10-13T15:33:22.453Z,40.25
2022-10-13T15:35:52.313Z,44.58
2022-10-13T15:38:19.717Z,42.95
2022-10-13T15:40:46.761Z,42.92
2022-10-13T15:43:13.106Z,39.00
2022-10-13T15:45:39.801Z,36.88
2022-10-13T15:48:06.941Z,35.45
2022-10-13T15:50:34.130Z,37.08
2022-10-13T15:53:00.678Z,35.63
2022-10-13T15:55:28.506Z,30.38
2022-10-13T15:57:54.814Z,30.65
2022-10-13T16:00:21.169Z,34.17
2022-10-13T16:02:49.938Z,26.70
2022-10-13T16:05:16.305Z,32.85
2022-10-13T16:07:42.751Z,20.20
2022-10-13T16:10:11.875Z,22.13
2022-10-13T16:12:38.752Z,26.85
2022-10-13T16:15:06.432Z,24.15
2022-10-13T16:17:32.777Z,24.90
2022-10-13T16:19:59.075Z,35.20
2022-10-13T16:22:25.420Z,30.90
2022-10-13T16:24:51.742Z,31.00
2022-10-13T16:27:18.375Z,32.53
2022-10-13T16:29:44.678Z,36.35
2022-10-13T16:32:10.994Z,31.35
2022-10-13T16:34:37.865Z,34.53
2022-10-13T16:37:04.443Z,37.22
2022-10-13T16:39:30.765Z,41.10
2022-10-13T16:41:57.090Z,39.60
2022-10-13T16:44:23.462Z,41.20
2022-10-13T16:46:52.015Z,34.13
2022-10-13T16:49:18.368Z,34.60
2022-10-13T16:51:44.658Z,32.75
2022-10-13T16:54:10.996Z,40.83
2022-10-13T16:56:37.319Z,49.17
2022-10-13T16:59:05.436Z,43.00
2022-10-13T17:01:32.579Z,45.20
2022-10-13T17:03:59.162Z,38.28
2022-10-13T17:06:27.045Z,39.72
2022-10-13T17:08:53.378Z,34.67
2022-10-13T17:11:22.085Z,33.05
2022-10-13T17:13:48.798Z,39.22
2022-10-13T17:16:15.793Z,38.55
2022-10-13T17:18:42.516Z,49.03
2022-10-13T17:21:11.934Z,49.05
2022-10-13T17:23:38.264Z,49.85
2022-10-13T17:26:07.334Z,42.50
2022-10-13T17:28:34.789Z,44.13
2022-10-13T17:31:03.920Z,39.22
2022-10-13T17:33:32.867Z,44.00
2022-10-13T17:36:00.788Z,46.85
2022-10-13T17:38:27.810Z,45.25
2022-10-13T17:40:59.495Z,45.00
2022-10-13T17:43:26.238Z,44.28
2022-10-13T17:45:52.578Z,45.55
2022-10-13T17:48:22.929Z,51.22
2022-10-13T17:50:49.551Z,45.97
2022-10-13T17:53:15.940Z,46.57
2022-10-13T17:55:42.230Z,42.05
2022-10-13T17:58:08.567Z,46.55
2022-10-13T18:00:54.095Z,46.88
2022-10-13T18:03:21.480Z,43.85
2022-10-13T18:05:47.822Z,41.15
2022-10-13T18:08:14.142Z,38.13
2022-10-13T18:11:07.061Z,45.93
2022-10-13T18:13:26.722Z,42.30
2022-10-13T18:15:53.056Z,43.45
2022-10-13T18:18:19.451Z,42.28
2022-10-13T18:20:45.799Z,45.42
2022-10-13T18:23:12.158Z,44.53
2022-10-13T18:25:38.656Z,40.97
2022-10-13T18:28:04.938Z,41.45
2022-10-13T18:30:32.158Z,41.20
2022-10-13T18:32:58.460Z,39.28
2022-10-13T18:35:26.561Z,36.77
2022-10-13T18:37:56.302Z,39.20
2022-10-13T18:40:22.586Z,41.33
2022-10-13T18:42:54.227Z,41.40
2022-10-13T18:45:21.068Z,39.73
2022-10-13T18:47:51.054Z,38.47
2022-10-13T18:50:17.444Z,36.07
2022-10-13T18:52:43.758Z,36.03
2022-10-13T18:55:10.067Z,38.60
2022-10-13T18:57:37.854Z,35.87
2022-10-13T19:00:06.609Z,36.33
2022-10-13T19:02:33.363Z,35.30
2022-10-13T19:04:59.642Z,36.97
2022-10-13T19:07:25.944Z,29.80
2022-10-13T19:09:53.283Z,39.47
2022-10-13T19:12:19.589Z,32.33
2022-10-13T19:14:45.895Z,32.60
2022-10-13T19:17:12.217Z,32.83
2022-10-13T19:19:38.979Z,32.67
2022-10-13T19:22:07.490Z,33.70
2022-10-13T19:24:33.799Z,37.47
2022-10-13T19:27:00.122Z,37.67
2022-10-13T19:29:26.527Z,36.33
2022-10-13T19:31:52.850Z,35.73
2022-10-13T19:34:19.524Z,38.42
2022-10-13T19:36:46.590Z,35.20
2022-10-13T19:39:19.257Z,35.40
2022-10-13T19:41:46.654Z,34.90
2022-10-13T19:44:13.900Z,32.53
2022-10-13T19:46:41.906Z,36.03
2022-10-13T19:49:08.419Z,35.27
2022-10-13T19:51:34.938Z,35.50
2022-10-13T19:54:01.466Z,35.60
2022-10-13T19:56:31.411Z,33.70
2022-10-13T19:58:57.942Z,42.90
2022-10-13T20:01:24.331Z,34.50
2022-10-13T20:03:50.712Z,32.23
2022-10-13T20:06:17.959Z,34.10
2022-10-13T20:08:45.070Z,33.27
2022-10-13T20:11:22.205Z,34.83
2022-10-13T20:13:49.699Z,31.38
2022-10-13T20:16:18.364Z,33.67
2022-10-13T20:18:44.812Z,34.17
2022-10-13T20:21:12.447Z,34.40
2022-10-13T20:23:40.750Z,33.17
2022-10-13T20:26:11.829Z,31.23
2022-10-13T20:28:43.304Z,32.23
2022-10-13T20:31:12.525Z,31.90
2022-10-13T20:33:38.848Z,32.13
2022-10-13T20:36:07.542Z,30.17
2022-10-13T20:38:35.786Z,30.13
2022-10-13T20:41:15.355Z,28.50
2022-10-13T20:43:41.670Z,30.23
2022-10-13T20:46:08.430Z,31.37
2022-10-13T20:49:05.104Z,32.93
2022-10-13T20:51:24.043Z,28.60
2022-10-13T20:53:50.800Z,28.47
2022-10-13T20:56:22.303Z,28.17
2022-10-13T20:58:48.725Z,27.17
2022-10-13T21:01:17.927Z,26.70
2022-10-13T21:03:44.574Z,26.60
2022-10-13T21:06:12.963Z,27.00
2022-10-13T21:08:39.626Z,25.57
2022-10-13T21:11:09.386Z,24.17
2022-10-13T21:13:36.335Z,22.57
2022-10-13T21:16:07.423Z,24.50
2022-10-13T21:18:33.839Z,24.23
2022-10-13T21:21:05.174Z,24.83
2022-10-13T21:23:31.525Z,25.40
2022-10-13T21:26:00.898Z,24.73
2022-10-13T21:28:27.243Z,21.88
2022-10-13T21:31:04.661Z,22.87
2022-10-13T21:33:33.412Z,21.70
2022-10-13T21:36:05.643Z,20.83
2022-10-13T21:38:31.936Z,22.67
2022-10-13T21:40:58.231Z,25.57
2022-10-13T21:43:24.530Z,25.33
2022-10-13T21:45:50.834Z,27.40
2022-10-13T21:48:17.196Z,26.67
2022-10-13T21:50:43.496Z,26.77
2022-10-13T21:53:09.842Z,25.37
2022-10-13T21:55:36.147Z,24.67
2022-10-13T21:58:05.151Z,26.07
2022-10-13T22:00:33.182Z,23.90
2022-10-13T22:02:59.561Z,25.53
2022-10-13T22:05:25.874Z,24.23
2022-10-13T22:07:53.138Z,24.13
2022-10-13T22:10:19.447Z,20.87
2022-10-13T22:12:45.886Z,24.13
2022-10-13T22:15:12.216Z,25.45
2022-10-13T22:17:38.493Z,24.80
2022-10-13T22:20:05.103Z,23.73
2022-10-13T22:22:31.397Z,24.40
2022-10-13T22:24:57.699Z,23.73
2022-10-13T22:27:24.037Z,24.53
2022-10-13T22:29:50.350Z,23.13
2022-10-13T22:32:16.656Z,23.35
2022-10-13T22:34:42.955Z,23.77
2022-10-13T22:37:09.245Z,23.97
2022-10-13T22:39:35.615Z,22.03
2022-10-13T22:42:01.925Z,20.97
2022-10-13T22:44:28.251Z,22.07
2022-10-13T22:46:54.553Z,20.43
2022-10-13T22:49:20.834Z,20.87
2022-10-13T22:51:47.197Z,23.37
2022-10-13T22:54:13.552Z,23.27
2022-10-13T22:56:40.635Z,21.73
2022-10-13T22:59:08.027Z,20.80
2022-10-13T23:01:34.441Z,23.47
2022-10-13T23:04:00.809Z,21.13
2022-10-13T23:06:29.768Z,22.13
2022-10-13T23:08:56.214Z,21.08
2022-10-13T23:11:22.879Z,19.90
2022-10-13T23:13:49.187Z,19.43
2022-10-13T23:16:18.998Z,18.87
2022-10-13T23:18:45.339Z,21.03
2022-10-13T23:21:14.377Z,21.30
2022-10-13T23:23:40.734Z,18.93
2022-10-13T23:26:09.650Z,20.10
2022-10-13T23:28:36.086Z,19.93
2022-10-13T23:31:04.670Z,20.20
2022-10-13T23:33:31.039Z,19.93
2022-10-13T23:35:58.607Z,19.27
2022-10-13T23:38:26.362Z,19.33
2022-10-13T23:40:52.875Z,18.73
2022-10-13T23:43:19.507Z,18.67
2022-10-13T23:45:45.904Z,19.10
2022-10-13T23:48:12.240Z,17.37
2022-10-13T23:50:38.535Z,18.57
2022-10-13T23:53:04.854Z,18.87
2022-10-13T23:55:31.160Z,21.73
2022-10-13T23:57:57.527Z,18.23
